sensor_id;sensor_type;location;lat;lon;timestamp;P1;durP1;ratioP1;P2;durP2;ratioP2
7215;SDS011;3649;48.798;9.798;2024-01-10T00:01:59;18.83;;;11.45;;
7215;SDS011;3649;48.798;9.798;2024-01-10T00:04:26;17.10;;;11.13;;
7215;SDS011;3649;48.798;9.798;2024-01-10T00:06:53;18.47;;;12.13;;
7215;SDS011;3649;48.798;9.798;2024-01-10T00:09:20;20.33;;;11.87;;
7215;SDS011;3649;48.798;9.798;2024-01-10T00:11:47;19.93;;;12.13;;
7215;SDS011;3649;48.798;9.798;2024-01-10T00:14:14;16.93;;;11.67;;
7215;SDS011;3649;48.798;9.798;2024-01-10T00:16:41;17.20;;;10.67;;
7215;SDS011;3649;48.798;9.798;2024-01-10T00:19:08;20.23;;;12.33;;
7215;SDS011;3649;48.798;9.798;2024-01-10T00:21:35;20.23;;;12.00;;
7215;SDS011;3649;48.798;9.798;2024-01-10T00:24:02;19.90;;;11.77;;
7215;SDS011;3649;48.798;9.798;2024-01-10T00:26:29;19.47;;;11.80;;
7215;SDS011;3649;48.798;9.798;2024-01-10T00:28:56;16.93;;;10.83;;
7215;SDS011;3649;48.798;9.798;2024-01-10T00:31:30;16.17;;;11.43;;
7215;SDS011;3649;48.798;9.798;2024-01-10T00:33:57;18.73;;;11.63;;
7215;SDS011;3649;48.798;9.798;2024-01-10T00:36:24;18.33;;;11.30;;
7215;SDS011;3649;48.798;9.798;2024-01-10T00:38:51;16.93;;;12.10;;
7215;SDS011;3649;48.798;9.798;2024-01-10T00:41:18;16.63;;;11.13;;
7215;SDS011;3649;48.798;9.798;2024-01-10T00:43:44;19.37;;;12.27;;
7215;SDS011;3649;48.798;9.798;2024-01-10T00:46:11;19.30;;;12.47;;
7215;SDS011;3649;48.798;9.798;2024-01-10T00:48:38;17.20;;;11.83;;
7215;SDS011;3649;48.798;9.798;2024-01-10T00:51:05;16.97;;;11.10;;
7215;SDS011;3649;48.798;9.798;2024-01-10T00:53:35;22.23;;;12.83;;
7215;SDS011;3649;48.798;9.798;2024-01-10T00:56:05;16.37;;;11.27;;
7215;SDS011;3649;48.798;9.798;2024-01-10T00:58:33;21.73;;;12.03;;
7215;SDS011;3649;48.798;9.798;2024-01-10T01:01:00;17.10;;;11.83;;
7215;SDS011;3649;48.798;9.798;2024-01-10T01:03:27;17.07;;;11.80;;
7215;SDS011;3649;48.798;9.798;2024-01-10T01:05:54;18.83;;;11.33;;
7215;SDS011;3649;48.798;9.798;2024-01-10T01:08:24;16.17;;;11.43;;
7215;SDS011;3649;48.798;9.798;2024-01-10T01:10:51;19.23;;;12.37;;
7215;SDS011;3649;48.798;9.798;2024-01-10T01:13:18;17.83;;;11.53;;
7215;SDS011;3649;48.798;9.798;2024-01-10T01:15:45;19.47;;;10.87;;
7215;SDS011;3649;48.798;9.798;2024-01-10T01:18:12;16.10;;;11.57;;
7215;SDS011;3649;48.798;9.798;2024-01-10T01:20:39;18.13;;;12.20;;
7215;SDS011;3649;48.798;9.798;2024-01-10T01:23:06;21.17;;;13.03;;
7215;SDS011;3649;48.798;9.798;2024-01-10T01:25:33;17.97;;;11.10;;
7215;SDS011;3649;48.798;9.798;2024-01-10T01:28:00;18.20;;;11.50;;
7215;SDS011;3649;48.798;9.798;2024-01-10T01:30:27;18.43;;;11.53;;
7215;SDS011;3649;48.798;9.798;2024-01-10T01:32:54;18.20;;;11.27;;
7215;SDS011;3649;48.798;9.798;2024-01-10T01:35:21;16.27;;;11.00;;
7215;SDS011;3649;48.798;9.798;2024-01-10T01:37:49;17.30;;;10.50;;
7215;SDS011;3649;48.798;9.798;2024-01-10T01:40:17;16.47;;;12.27;;
7215;SDS011;3649;48.798;9.798;2024-01-10T01:42:45;27.07;;;12.73;;
7215;SDS011;3649;48.798;9.798;2024-01-10T01:45:12;19.07;;;10.97;;
7215;SDS011;3649;48.798;9.798;2024-01-10T01:47:40;18.00;;;11.67;;
7215;SDS011;3649;48.798;9.798;2024-01-10T01:50:07;25.13;;;11.97;;
7215;SDS011;3649;48.798;9.798;2024-01-10T01:52:35;16.00;;;11.03;;
7215;SDS011;3649;48.798;9.798;2024-01-10T01:55:03;19.30;;;11.57;;
7215;SDS011;3649;48.798;9.798;2024-01-10T01:57:31;16.77;;;11.63;;
7215;SDS011;3649;48.798;9.798;2024-01-10T01:59:59;18.30;;;10.70;;
7215;SDS011;3649;48.798;9.798;2024-01-10T02:02:26;17.17;;;10.70;;
7215;SDS011;3649;48.798;9.798;2024-01-10T02:04:55;19.87;;;10.60;;
7215;SDS011;3649;48.798;9.798;2024-01-10T02:07:22;17.33;;;11.47;;
7215;SDS011;3649;48.798;9.798;2024-01-10T02:09:49;16.00;;;10.43;;
7215;SDS011;3649;48.798;9.798;2024-01-10T02:12:16;19.67;;;12.33;;
7215;SDS011;3649;48.798;9.798;2024-01-10T02:14:43;18.77;;;10.57;;
7215;SDS011;3649;48.798;9.798;2024-01-10T02:17:10;15.17;;;10.77;;
7215;SDS011;3649;48.798;9.798;2024-01-10T02:19:37;20.13;;;11.60;;
7215;SDS011;3649;48.798;9.798;2024-01-10T02:22:04;17.83;;;10.97;;
7215;SDS011;3649;48.798;9.798;2024-01-10T02:24:31;17.67;;;11.53;;
7215;SDS011;3649;48.798;9.798;2024-01-10T02:26:58;17.17;;;11.33;;
7215;SDS011;3649;48.798;9.798;2024-01-10T02:29:25;20.80;;;11.57;;
7215;SDS011;3649;48.798;9.798;2024-01-10T02:31:52;18.10;;;10.80;;
7215;SDS011;3649;48.798;9.798;2024-01-10T02:34:19;17.50;;;10.13;;
7215;SDS011;3649;48.798;9.798;2024-01-10T02:36:46;16.50;;;11.03;;
7215;SDS011;3649;48.798;9.798;2024-01-10T02:39:12;15.43;;;11.07;;
7215;SDS011;3649;48.798;9.798;2024-01-10T02:41:39;18.03;;;12.13;;
7215;SDS011;3649;48.798;9.798;2024-01-10T02:44:06;14.17;;;10.73;;
7215;SDS011;3649;48.798;9.798;2024-01-10T02:46:33;18.17;;;11.07;;
7215;SDS011;3649;48.798;9.798;2024-01-10T02:49:00;16.60;;;10.23;;
7215;SDS011;3649;48.798;9.798;2024-01-10T02:51:27;15.53;;;9.83;;
7215;SDS011;3649;48.798;9.798;2024-01-10T02:53:56;15.60;;;10.50;;
7215;SDS011;3649;48.798;9.798;2024-01-10T02:56:23;17.67;;;10.80;;
7215;SDS011;3649;48.798;9.798;2024-01-10T02:58:50;15.30;;;10.10;;
7215;SDS011;3649;48.798;9.798;2024-01-10T03:01:17;14.83;;;10.00;;
7215;SDS011;3649;48.798;9.798;2024-01-10T03:03:44;18.60;;;10.67;;
7215;SDS011;3649;48.798;9.798;2024-01-10T03:06:10;16.73;;;10.70;;
7215;SDS011;3649;48.798;9.798;2024-01-10T03:08:37;16.60;;;10.90;;
7215;SDS011;3649;48.798;9.798;2024-01-10T03:11:04;15.93;;;11.23;;
7215;SDS011;3649;48.798;9.798;2024-01-10T03:13:31;20.67;;;10.13;;
7215;SDS011;3649;48.798;9.798;2024-01-10T03:15:58;16.20;;;10.73;;
7215;SDS011;3649;48.798;9.798;2024-01-10T03:18:25;12.77;;;9.40;;
7215;SDS011;3649;48.798;9.798;2024-01-10T03:20:52;14.73;;;9.87;;
7215;SDS011;3649;48.798;9.798;2024-01-10T03:23:19;16.13;;;10.63;;
7215;SDS011;3649;48.798;9.798;2024-01-10T03:25:47;18.17;;;11.07;;
7215;SDS011;3649;48.798;9.798;2024-01-10T03:28:16;19.10;;;10.83;;
7215;SDS011;3649;48.798;9.798;2024-01-10T03:30:44;15.97;;;10.23;;
7215;SDS011;3649;48.798;9.798;2024-01-10T03:33:11;15.50;;;10.60;;
7215;SDS011;3649;48.798;9.798;2024-01-10T03:35:38;14.87;;;10.00;;
7215;SDS011;3649;48.798;9.798;2024-01-10T03:38:05;16.00;;;10.53;;
7215;SDS011;3649;48.798;9.798;2024-01-10T03:40:31;15.30;;;10.90;;
7215;SDS011;3649;48.798;9.798;2024-01-10T03:42:58;22.27;;;11.37;;
7215;SDS011;3649;48.798;9.798;2024-01-10T03:45:25;16.03;;;10.60;;
7215;SDS011;3649;48.798;9.798;2024-01-10T03:47:53;15.87;;;10.73;;
7215;SDS011;3649;48.798;9.798;2024-01-10T03:50:19;16.33;;;9.87;;
7215;SDS011;3649;48.798;9.798;2024-01-10T03:52:47;17.23;;;10.33;;
7215;SDS011;3649;48.798;9.798;2024-01-10T03:55:13;15.67;;;10.07;;
7215;SDS011;3649;48.798;9.798;2024-01-10T03:57:41;14.83;;;10.10;;
7215;SDS011;3649;48.798;9.798;2024-01-10T04:00:09;20.57;;;10.20;;
7215;SDS011;3649;48.798;9.798;2024-01-10T04:02:37;18.27;;;10.20;;
7215;SDS011;3649;48.798;9.798;2024-01-10T04:05:09;16.03;;;9.93;;
7215;SDS011;3649;48.798;9.798;2024-01-10T04:07:41;16.33;;;11.30;;
7215;SDS011;3649;48.798;9.798;2024-01-10T04:10:10;16.23;;;10.30;;
7215;SDS011;3649;48.798;9.798;2024-01-10T04:12:37;16.83;;;10.37;;
7215;SDS011;3649;48.798;9.798;2024-01-10T04:15:04;19.33;;;10.90;;
7215;SDS011;3649;48.798;9.798;2024-01-10T04:17:31;20.00;;;11.03;;
7215;SDS011;3649;48.798;9.798;2024-01-10T04:19:59;17.93;;;10.57;;
7215;SDS011;3649;48.798;9.798;2024-01-10T04:22:26;17.37;;;10.13;;
7215;SDS011;3649;48.798;9.798;2024-01-10T04:24:53;16.93;;;10.90;;
7215;SDS011;3649;48.798;9.798;2024-01-10T04:27:20;15.20;;;9.67;;
7215;SDS011;3649;48.798;9.798;2024-01-10T04:29:47;16.57;;;10.77;;
7215;SDS011;3649;48.798;9.798;2024-01-10T04:32:14;15.87;;;10.73;;
7215;SDS011;3649;48.798;9.798;2024-01-10T04:34:41;15.20;;;10.57;;
7215;SDS011;3649;48.798;9.798;2024-01-10T04:37:08;18.57;;;10.73;;
7215;SDS011;3649;48.798;9.798;2024-01-10T04:39:35;14.07;;;10.30;;
7215;SDS011;3649;48.798;9.798;2024-01-10T04:42:04;18.70;;;10.60;;
7215;SDS011;3649;48.798;9.798;2024-01-10T04:44:31;17.40;;;10.57;;
7215;SDS011;3649;48.798;9.798;2024-01-10T04:46:58;16.30;;;10.03;;
7215;SDS011;3649;48.798;9.798;2024-01-10T04:49:28;18.10;;;10.77;;
7215;SDS011;3649;48.798;9.798;2024-01-10T04:51:55;18.53;;;11.20;;
7215;SDS011;3649;48.798;9.798;2024-01-10T04:54:22;19.33;;;10.03;;
7215;SDS011;3649;48.798;9.798;2024-01-10T04:56:49;15.13;;;10.77;;
7215;SDS011;3649;48.798;9.798;2024-01-10T04:59:15;13.47;;;10.30;;
7215;SDS011;3649;48.798;9.798;2024-01-10T05:01:42;19.10;;;10.90;;
7215;SDS011;3649;48.798;9.798;2024-01-10T05:04:09;15.10;;;10.60;;
7215;SDS011;3649;48.798;9.798;2024-01-10T05:06:36;16.43;;;10.60;;
7215;SDS011;3649;48.798;9.798;2024-01-10T05:09:03;16.20;;;10.83;;
7215;SDS011;3649;48.798;9.798;2024-01-10T05:11:30;16.77;;;11.30;;
7215;SDS011;3649;48.798;9.798;2024-01-10T05:13:57;16.53;;;10.70;;
7215;SDS011;3649;48.798;9.798;2024-01-10T05:16:24;17.83;;;12.33;;
7215;SDS011;3649;48.798;9.798;2024-01-10T05:18:51;16.73;;;10.70;;
7215;SDS011;3649;48.798;9.798;2024-01-10T05:21:18;16.73;;;10.23;;
7215;SDS011;3649;48.798;9.798;2024-01-10T05:23:45;15.27;;;10.47;;
7215;SDS011;3649;48.798;9.798;2024-01-10T05:26:12;17.00;;;10.93;;
7215;SDS011;3649;48.798;9.798;2024-01-10T05:28:39;17.67;;;11.50;;
7215;SDS011;3649;48.798;9.798;2024-01-10T05:31:06;18.93;;;11.63;;
7215;SDS011;3649;48.798;9.798;2024-01-10T05:33:33;17.90;;;10.67;;
7215;SDS011;3649;48.798;9.798;2024-01-10T05:36:00;17.47;;;10.53;;
7215;SDS011;3649;48.798;9.798;2024-01-10T05:38:27;16.47;;;10.77;;
7215;SDS011;3649;48.798;9.798;2024-01-10T05:40:54;15.70;;;10.70;;
7215;SDS011;3649;48.798;9.798;2024-01-10T05:43:20;16.07;;;11.00;;
7215;SDS011;3649;48.798;9.798;2024-01-10T05:45:48;15.63;;;10.73;;
7215;SDS011;3649;48.798;9.798;2024-01-10T05:48:14;18.63;;;12.27;;
7215;SDS011;3649;48.798;9.798;2024-01-10T05:50:43;21.67;;;12.90;;
7215;SDS011;3649;48.798;9.798;2024-01-10T05:53:10;19.27;;;11.13;;
7215;SDS011;3649;48.798;9.798;2024-01-10T05:55:38;18.33;;;12.40;;
7215;SDS011;3649;48.798;9.798;2024-01-10T05:58:05;19.37;;;12.40;;
7215;SDS011;3649;48.798;9.798;2024-01-10T06:00:32;18.07;;;11.40;;
7215;SDS011;3649;48.798;9.798;2024-01-10T06:02:59;18.37;;;11.87;;
7215;SDS011;3649;48.798;9.798;2024-01-10T06:05:26;18.33;;;11.23;;
7215;SDS011;3649;48.798;9.798;2024-01-10T06:07:53;15.73;;;10.63;;
7215;SDS011;3649;48.798;9.798;2024-01-10T06:10:20;17.20;;;11.80;;
7215;SDS011;3649;48.798;9.798;2024-01-10T06:12:47;16.47;;;11.57;;
7215;SDS011;3649;48.798;9.798;2024-01-10T06:15:15;20.23;;;12.20;;
7215;SDS011;3649;48.798;9.798;2024-01-10T06:17:42;18.73;;;12.17;;
7215;SDS011;3649;48.798;9.798;2024-01-10T06:20:09;20.50;;;12.20;;
7215;SDS011;3649;48.798;9.798;2024-01-10T06:22:36;17.10;;;12.47;;
7215;SDS011;3649;48.798;9.798;2024-01-10T06:25:03;17.10;;;12.37;;
7215;SDS011;3649;48.798;9.798;2024-01-10T06:27:31;15.80;;;11.63;;
7215;SDS011;3649;48.798;9.798;2024-01-10T06:29:58;21.77;;;13.00;;
7215;SDS011;3649;48.798;9.798;2024-01-10T06:32:25;21.73;;;13.57;;
7215;SDS011;3649;48.798;9.798;2024-01-10T06:34:52;23.57;;;13.63;;
7215;SDS011;3649;48.798;9.798;2024-01-10T06:37:19;18.83;;;13.17;;
7215;SDS011;3649;48.798;9.798;2024-01-10T06:39:46;16.87;;;12.40;;
7215;SDS011;3649;48.798;9.798;2024-01-10T06:42:13;17.13;;;12.33;;
7215;SDS011;3649;48.798;9.798;2024-01-10T06:44:40;23.83;;;12.97;;
7215;SDS011;3649;48.798;9.798;2024-01-10T06:47:07;19.07;;;13.47;;
7215;SDS011;3649;48.798;9.798;2024-01-10T06:49:34;26.60;;;12.63;;
7215;SDS011;3649;48.798;9.798;2024-01-10T06:52:01;18.87;;;12.83;;
7215;SDS011;3649;48.798;9.798;2024-01-10T06:54:28;21.53;;;13.50;;
7215;SDS011;3649;48.798;9.798;2024-01-10T06:56:55;18.10;;;12.93;;
7215;SDS011;3649;48.798;9.798;2024-01-10T06:59:22;24.57;;;13.70;;
7215;SDS011;3649;48.798;9.798;2024-01-10T07:01:52;19.97;;;12.70;;
7215;SDS011;3649;48.798;9.798;2024-01-10T07:04:20;17.63;;;13.03;;
7215;SDS011;3649;48.798;9.798;2024-01-10T07:06:51;28.17;;;13.63;;
7215;SDS011;3649;48.798;9.798;2024-01-10T07:09:18;22.63;;;13.57;;
7215;SDS011;3649;48.798;9.798;2024-01-10T07:11:46;23.10;;;14.00;;
7215;SDS011;3649;48.798;9.798;2024-01-10T07:14:14;22.23;;;13.53;;
7215;SDS011;3649;48.798;9.798;2024-01-10T07:16:41;20.50;;;12.87;;
7215;SDS011;3649;48.798;9.798;2024-01-10T07:19:12;21.70;;;13.47;;
7215;SDS011;3649;48.798;9.798;2024-01-10T07:21:40;18.30;;;12.53;;
7215;SDS011;3649;48.798;9.798;2024-01-10T07:24:08;19.27;;;13.33;;
7215;SDS011;3649;48.798;9.798;2024-01-10T07:26:39;20.77;;;13.03;;
7215;SDS011;3649;48.798;9.798;2024-01-10T07:29:07;19.70;;;13.27;;
7215;SDS011;3649;48.798;9.798;2024-01-10T07:31:35;19.37;;;13.90;;
7215;SDS011;3649;48.798;9.798;2024-01-10T07:34:02;20.70;;;13.27;;
7215;SDS011;3649;48.798;9.798;2024-01-10T07:36:32;19.27;;;12.90;;
7215;SDS011;3649;48.798;9.798;2024-01-10T07:39:02;20.97;;;13.23;;
7215;SDS011;3649;48.798;9.798;2024-01-10T07:41:30;19.83;;;13.40;;
7215;SDS011;3649;48.798;9.798;2024-01-10T07:43:57;23.77;;;13.90;;
7215;SDS011;3649;48.798;9.798;2024-01-10T07:46:24;20.63;;;13.80;;
7215;SDS011;3649;48.798;9.798;2024-01-10T07:48:53;28.10;;;15.17;;
7215;SDS011;3649;48.798;9.798;2024-01-10T07:51:20;24.17;;;15.33;;
7215;SDS011;3649;48.798;9.798;2024-01-10T07:53:48;26.90;;;15.00;;
7215;SDS011;3649;48.798;9.798;2024-01-10T07:56:15;25.80;;;14.77;;
7215;SDS011;3649;48.798;9.798;2024-01-10T07:58:42;22.40;;;13.57;;
7215;SDS011;3649;48.798;9.798;2024-01-10T08:01:09;21.53;;;14.70;;
7215;SDS011;3649;48.798;9.798;2024-01-10T08:03:37;28.53;;;14.37;;
7215;SDS011;3649;48.798;9.798;2024-01-10T08:06:06;20.57;;;14.07;;
7215;SDS011;3649;48.798;9.798;2024-01-10T08:08:45;19.43;;;14.00;;
7215;SDS011;3649;48.798;9.798;2024-01-10T08:11:12;21.87;;;14.17;;
7215;SDS011;3649;48.798;9.798;2024-01-10T08:13:39;19.97;;;13.77;;
7215;SDS011;3649;48.798;9.798;2024-01-10T08:16:06;23.77;;;14.83;;
7215;SDS011;3649;48.798;9.798;2024-01-10T08:18:35;18.90;;;13.43;;
7215;SDS011;3649;48.798;9.798;2024-01-10T08:21:02;23.63;;;15.43;;
7215;SDS011;3649;48.798;9.798;2024-01-10T08:23:30;25.93;;;14.23;;
7215;SDS011;3649;48.798;9.798;2024-01-10T08:25:57;23.33;;;14.47;;
7215;SDS011;3649;48.798;9.798;2024-01-10T08:28:24;23.50;;;15.07;;
7215;SDS011;3649;48.798;9.798;2024-01-10T08:30:52;23.47;;;14.67;;
7215;SDS011;3649;48.798;9.798;2024-01-10T08:33:29;20.87;;;14.40;;
7215;SDS011;3649;48.798;9.798;2024-01-10T08:35:57;22.73;;;13.93;;
7215;SDS011;3649;48.798;9.798;2024-01-10T08:38:25;23.40;;;14.30;;
7215;SDS011;3649;48.798;9.798;2024-01-10T08:40:52;20.97;;;14.13;;
7215;SDS011;3649;48.798;9.798;2024-01-10T08:43:19;22.73;;;15.20;;
7215;SDS011;3649;48.798;9.798;2024-01-10T08:45:46;21.93;;;14.23;;
7215;SDS011;3649;48.798;9.798;2024-01-10T08:48:13;36.50;;;18.53;;
7215;SDS011;3649;48.798;9.798;2024-01-10T08:50:41;27.37;;;16.37;;
7215;SDS011;3649;48.798;9.798;2024-01-10T08:53:09;26.33;;;16.03;;
7215;SDS011;3649;48.798;9.798;2024-01-10T08:55:36;26.73;;;16.07;;
7215;SDS011;3649;48.798;9.798;2024-01-10T08:58:03;28.50;;;15.27;;
7215;SDS011;3649;48.798;9.798;2024-01-10T09:00:30;33.20;;;17.40;;
7215;SDS011;3649;48.798;9.798;2024-01-10T09:02:58;23.20;;;14.63;;
7215;SDS011;3649;48.798;9.798;2024-01-10T09:05:25;23.13;;;15.17;;
7215;SDS011;3649;48.798;9.798;2024-01-10T09:07:52;28.37;;;15.17;;
7215;SDS011;3649;48.798;9.798;2024-01-10T09:10:22;23.33;;;15.50;;
7215;SDS011;3649;48.798;9.798;2024-01-10T09:12:49;21.87;;;14.57;;
7215;SDS011;3649;48.798;9.798;2024-01-10T09:15:16;22.70;;;15.37;;
7215;SDS011;3649;48.798;9.798;2024-01-10T09:17:43;22.70;;;14.47;;
7215;SDS011;3649;48.798;9.798;2024-01-10T09:20:11;23.47;;;15.43;;
7215;SDS011;3649;48.798;9.798;2024-01-10T09:22:39;25.83;;;14.97;;
7215;SDS011;3649;48.798;9.798;2024-01-10T09:25:06;23.73;;;15.93;;
7215;SDS011;3649;48.798;9.798;2024-01-10T09:27:34;25.97;;;15.90;;
7215;SDS011;3649;48.798;9.798;2024-01-10T09:30:02;22.60;;;14.97;;
7215;SDS011;3649;48.798;9.798;2024-01-10T09:32:30;25.97;;;16.87;;
7215;SDS011;3649;48.798;9.798;2024-01-10T09:34:57;25.03;;;16.67;;
7215;SDS011;3649;48.798;9.798;2024-01-10T09:37:25;25.87;;;16.40;;
7215;SDS011;3649;48.798;9.798;2024-01-10T09:39:52;24.63;;;16.87;;
7215;SDS011;3649;48.798;9.798;2024-01-10T09:42:19;27.20;;;16.50;;
7215;SDS011;3649;48.798;9.798;2024-01-10T09:44:52;25.37;;;16.30;;
7215;SDS011;3649;48.798;9.798;2024-01-10T09:47:19;25.73;;;16.50;;
7215;SDS011;3649;48.798;9.798;2024-01-10T09:49:47;22.60;;;15.93;;
7215;SDS011;3649;48.798;9.798;2024-01-10T09:52:16;26.47;;;16.87;;
7215;SDS011;3649;48.798;9.798;2024-01-10T09:54:55;27.23;;;16.90;;
7215;SDS011;3649;48.798;9.798;2024-01-10T09:57:23;29.30;;;16.13;;
7215;SDS011;3649;48.798;9.798;2024-01-10T09:59:51;23.67;;;16.87;;
7215;SDS011;3649;48.798;9.798;2024-01-10T10:02:19;33.77;;;18.13;;
7215;SDS011;3649;48.798;9.798;2024-01-10T10:04:53;26.27;;;17.40;;
7215;SDS011;3649;48.798;9.798;2024-01-10T10:07:30;27.10;;;17.13;;
7215;SDS011;3649;48.798;9.798;2024-01-10T10:09:57;28.93;;;17.00;;
7215;SDS011;3649;48.798;9.798;2024-01-10T10:12:43;25.10;;;16.20;;
7215;SDS011;3649;48.798;9.798;2024-01-10T10:15:12;26.17;;;16.77;;
7215;SDS011;3649;48.798;9.798;2024-01-10T10:17:41;29.40;;;18.10;;
7215;SDS011;3649;48.798;9.798;2024-01-10T10:20:21;24.40;;;17.03;;
7215;SDS011;3649;48.798;9.798;2024-01-10T10:22:59;27.53;;;16.90;;
7215;SDS011;3649;48.798;9.798;2024-01-10T10:25:34;27.13;;;16.87;;
7215;SDS011;3649;48.798;9.798;2024-01-10T10:28:04;29.57;;;18.60;;
7215;SDS011;3649;48.798;9.798;2024-01-10T10:30:32;26.00;;;17.30;;
7215;SDS011;3649;48.798;9.798;2024-01-10T10:33:03;25.43;;;17.40;;
7215;SDS011;3649;48.798;9.798;2024-01-10T10:35:32;29.87;;;18.37;;
7215;SDS011;3649;48.798;9.798;2024-01-10T10:38:07;24.80;;;16.77;;
7215;SDS011;3649;48.798;9.798;2024-01-10T10:40:37;24.87;;;16.97;;
7215;SDS011;3649;48.798;9.798;2024-01-10T10:43:06;30.57;;;18.63;;
7215;SDS011;3649;48.798;9.798;2024-01-10T10:45:39;24.10;;;16.63;;
7215;SDS011;3649;48.798;9.798;2024-01-10T10:48:07;25.50;;;17.37;;
7215;SDS011;3649;48.798;9.798;2024-01-10T10:50:37;29.87;;;17.43;;
7215;SDS011;3649;48.798;9.798;2024-01-10T10:53:04;30.73;;;18.67;;
7215;SDS011;3649;48.798;9.798;2024-01-10T10:55:32;28.87;;;17.67;;
7215;SDS011;3649;48.798;9.798;2024-01-10T10:58:02;29.73;;;17.13;;
7215;SDS011;3649;48.798;9.798;2024-01-10T11:00:37;27.50;;;17.17;;
7215;SDS011;3649;48.798;9.798;2024-01-10T11:03:07;25.07;;;16.20;;
7215;SDS011;3649;48.798;9.798;2024-01-10T11:05:38;27.33;;;17.83;;
7215;SDS011;3649;48.798;9.798;2024-01-10T11:08:08;26.00;;;17.20;;
7215;SDS011;3649;48.798;9.798;2024-01-10T11:10:39;27.30;;;17.90;;
7215;SDS011;3649;48.798;9.798;2024-01-10T11:18:54;26.10;;;17.67;;
7215;SDS011;3649;48.798;9.798;2024-01-10T11:24:31;24.37;;;17.13;;
7215;SDS011;3649;48.798;9.798;2024-01-10T11:27:11;29.67;;;18.33;;
7215;SDS011;3649;48.798;9.798;2024-01-10T11:29:40;25.03;;;16.77;;
7215;SDS011;3649;48.798;9.798;2024-01-10T11:32:18;26.60;;;17.63;;
7215;SDS011;3649;48.798;9.798;2024-01-10T11:34:54;26.10;;;17.63;;
7215;SDS011;3649;48.798;9.798;2024-01-10T11:37:22;28.13;;;18.00;;
7215;SDS011;3649;48.798;9.798;2024-01-10T11:39:50;26.60;;;16.70;;
7215;SDS011;3649;48.798;9.798;2024-01-10T11:42:24;29.00;;;18.87;;
7215;SDS011;3649;48.798;9.798;2024-01-10T11:45:08;26.77;;;17.43;;
7215;SDS011;3649;48.798;9.798;2024-01-10T11:47:38;31.50;;;18.97;;
7215;SDS011;3649;48.798;9.798;2024-01-10T11:50:07;30.83;;;17.23;;
7215;SDS011;3649;48.798;9.798;2024-01-10T11:52:36;28.60;;;17.43;;
7215;SDS011;3649;48.798;9.798;2024-01-10T11:55:03;29.07;;;18.33;;
7215;SDS011;3649;48.798;9.798;2024-01-10T11:57:33;25.73;;;17.83;;
7215;SDS011;3649;48.798;9.798;2024-01-10T12:00:01;23.07;;;16.33;;
7215;SDS011;3649;48.798;9.798;2024-01-10T12:02:31;29.30;;;18.27;;
7215;SDS011;3649;48.798;9.798;2024-01-10T12:04:59;27.63;;;18.07;;
7215;SDS011;3649;48.798;9.798;2024-01-10T12:07:27;29.50;;;19.77;;
7215;SDS011;3649;48.798;9.798;2024-01-10T12:09:54;26.83;;;17.90;;
7215;SDS011;3649;48.798;9.798;2024-01-10T12:12:21;27.40;;;17.87;;
7215;SDS011;3649;48.798;9.798;2024-01-10T12:14:48;29.60;;;19.00;;
7215;SDS011;3649;48.798;9.798;2024-01-10T12:17:18;30.93;;;17.77;;
7215;SDS011;3649;48.798;9.798;2024-01-10T12:19:46;28.23;;;17.57;;
7215;SDS011;3649;48.798;9.798;2024-01-10T12:22:18;27.33;;;17.27;;
7215;SDS011;3649;48.798;9.798;2024-01-10T12:24:48;24.67;;;17.23;;
7215;SDS011;3649;48.798;9.798;2024-01-10T12:27:17;26.70;;;17.20;;
7215;SDS011;3649;48.798;9.798;2024-01-10T12:29:49;28.37;;;18.37;;
7215;SDS011;3649;48.798;9.798;2024-01-10T12:32:18;28.70;;;18.43;;
7215;SDS011;3649;48.798;9.798;2024-01-10T12:34:47;30.43;;;17.77;;
7215;SDS011;3649;48.798;9.798;2024-01-10T12:37:14;28.10;;;17.43;;
7215;SDS011;3649;48.798;9.798;2024-01-10T12:39:41;31.27;;;18.53;;
7215;SDS011;3649;48.798;9.798;2024-01-10T12:42:08;29.67;;;18.50;;
7215;SDS011;3649;48.798;9.798;2024-01-10T12:44:36;30.23;;;17.97;;
7215;SDS011;3649;48.798;9.798;2024-01-10T12:47:03;28.00;;;19.43;;
7215;SDS011;3649;48.798;9.798;2024-01-10T12:49:30;28.13;;;18.20;;
7215;SDS011;3649;48.798;9.798;2024-01-10T12:51:58;30.07;;;19.40;;
7215;SDS011;3649;48.798;9.798;2024-01-10T12:54:25;29.13;;;18.93;;
7215;SDS011;3649;48.798;9.798;2024-01-10T12:56:52;30.87;;;17.83;;
7215;SDS011;3649;48.798;9.798;2024-01-10T12:59:19;28.20;;;18.40;;
7215;SDS011;3649;48.798;9.798;2024-01-10T13:01:46;29.30;;;17.90;;
7215;SDS011;3649;48.798;9.798;2024-01-10T13:04:13;27.23;;;18.50;;
7215;SDS011;3649;48.798;9.798;2024-01-10T13:06:40;27.50;;;18.47;;
7215;SDS011;3649;48.798;9.798;2024-01-10T13:09:07;30.30;;;18.90;;
7215;SDS011;3649;48.798;9.798;2024-01-10T13:11:34;30.13;;;19.13;;
7215;SDS011;3649;48.798;9.798;2024-01-10T13:14:01;27.40;;;18.40;;
7215;SDS011;3649;48.798;9.798;2024-01-10T13:16:28;30.07;;;17.87;;
7215;SDS011;3649;48.798;9.798;2024-01-10T13:18:59;31.67;;;19.17;;
7215;SDS011;3649;48.798;9.798;2024-01-10T13:21:27;29.60;;;18.10;;
7215;SDS011;3649;48.798;9.798;2024-01-10T13:23:54;32.17;;;19.60;;
7215;SDS011;3649;48.798;9.798;2024-01-10T13:26:21;29.20;;;18.17;;
7215;SDS011;3649;48.798;9.798;2024-01-10T13:28:49;29.73;;;19.10;;
7215;SDS011;3649;48.798;9.798;2024-01-10T13:31:17;29.47;;;19.20;;
7215;SDS011;3649;48.798;9.798;2024-01-10T13:33:44;28.40;;;19.27;;
7215;SDS011;3649;48.798;9.798;2024-01-10T13:36:13;28.70;;;18.73;;
7215;SDS011;3649;48.798;9.798;2024-01-10T13:38:41;33.77;;;20.33;;
7215;SDS011;3649;48.798;9.798;2024-01-10T13:41:08;29.77;;;18.10;;
7215;SDS011;3649;48.798;9.798;2024-01-10T13:43:35;27.17;;;19.20;;
7215;SDS011;3649;48.798;9.798;2024-01-10T13:46:02;28.13;;;18.13;;
7215;SDS011;3649;48.798;9.798;2024-01-10T13:48:34;29.03;;;17.93;;
7215;SDS011;3649;48.798;9.798;2024-01-10T13:51:02;30.80;;;19.13;;
7215;SDS011;3649;48.798;9.798;2024-01-10T13:53:29;26.87;;;17.47;;
7215;SDS011;3649;48.798;9.798;2024-01-10T13:55:56;28.70;;;17.73;;
7215;SDS011;3649;48.798;9.798;2024-01-10T13:58:23;29.80;;;18.63;;
7215;SDS011;3649;48.798;9.798;2024-01-10T14:00:51;31.07;;;18.67;;
7215;SDS011;3649;48.798;9.798;2024-01-10T14:03:18;55.00;;;27.10;;
7215;SDS011;3649;48.798;9.798;2024-01-10T14:05:45;42.07;;;23.13;;
7215;SDS011;3649;48.798;9.798;2024-01-10T14:08:13;47.17;;;21.90;;
7215;SDS011;3649;48.798;9.798;2024-01-10T14:10:40;36.97;;;21.43;;
7215;SDS011;3649;48.798;9.798;2024-01-10T14:13:08;31.03;;;19.13;;
7215;SDS011;3649;48.798;9.798;2024-01-10T14:15:35;30.73;;;19.57;;
7215;SDS011;3649;48.798;9.798;2024-01-10T14:18:02;29.63;;;19.80;;
7215;SDS011;3649;48.798;9.798;2024-01-10T14:20:29;28.37;;;18.20;;
7215;SDS011;3649;48.798;9.798;2024-01-10T14:22:57;28.20;;;19.03;;
7215;SDS011;3649;48.798;9.798;2024-01-10T14:25:25;31.23;;;18.97;;
7215;SDS011;3649;48.798;9.798;2024-01-10T14:27:53;25.47;;;17.57;;
7215;SDS011;3649;48.798;9.798;2024-01-10T14:30:20;27.97;;;17.40;;
7215;SDS011;3649;48.798;9.798;2024-01-10T14:32:47;28.80;;;18.37;;
7215;SDS011;3649;48.798;9.798;2024-01-10T14:35:16;25.30;;;17.07;;
7215;SDS011;3649;48.798;9.798;2024-01-10T14:37:44;27.67;;;16.70;;
7215;SDS011;3649;48.798;9.798;2024-01-10T14:40:11;28.37;;;17.67;;
7215;SDS011;3649;48.798;9.798;2024-01-10T14:42:37;25.17;;;16.53;;
7215;SDS011;3649;48.798;9.798;2024-01-10T14:45:05;28.53;;;17.87;;
7215;SDS011;3649;48.798;9.798;2024-01-10T14:47:32;22.97;;;16.20;;
7215;SDS011;3649;48.798;9.798;2024-01-10T14:49:59;27.03;;;17.47;;
7215;SDS011;3649;48.798;9.798;2024-01-10T14:52:27;30.80;;;17.03;;
7215;SDS011;3649;48.798;9.798;2024-01-10T14:54:53;23.37;;;17.30;;
7215;SDS011;3649;48.798;9.798;2024-01-10T14:57:20;25.77;;;17.10;;
7215;SDS011;3649;48.798;9.798;2024-01-10T14:59:48;26.73;;;17.47;;
7215;SDS011;3649;48.798;9.798;2024-01-10T15:02:15;28.50;;;17.90;;